sensor_id;sensor_type;location;lat;lon;timestamp;P1;durP1;ratioP1;P2;durP2;ratioP2
24373;SDS011;12498;50.880;12.096;2022-10-30T00:00:03;20.33;;;8.10;;
24373;SDS011;12498;50.880;12.096;2022-10-30T00:02:29;22.40;;;7.93;;
24373;SDS011;12498;50.880;12.096;2022-10-30T00:04:55;22.42;;;7.78;;
24373;SDS011;12498;50.880;12.096;2022-10-30T00:07:20;22.10;;;8.07;;
24373;SDS011;12498;50.880;12.096;2022-10-30T00:09:46;22.02;;;8.80;;
24373;SDS011;12498;50.880;12.096;2022-10-30T00:12:14;22.73;;;8.27;;
24373;SDS011;12498;50.880;12.096;2022-10-30T00:14:40;28.55;;;9.60;;
24373;SDS011;12498;50.880;12.096;2022-10-30T00:17:06;18.38;;;8.38;;
24373;SDS011;12498;50.880;12.096;2022-10-30T00:19:31;19.30;;;7.85;;
24373;SDS011;12498;50.880;12.096;2022-10-30T00:21:57;21.25;;;8.45;;
24373;SDS011;12498;50.880;12.096;2022-10-30T00:24:22;22.88;;;8.43;;
24373;SDS011;12498;50.880;12.096;2022-10-30T00:26:48;24.27;;;8.13;;
24373;SDS011;12498;50.880;12.096;2022-10-30T00:29:14;23.20;;;8.48;;
24373;SDS011;12498;50.880;12.096;2022-10-30T00:31:40;28.17;;;8.40;;
24373;SDS011;12498;50.880;12.096;2022-10-30T00:34:06;24.00;;;8.80;;
24373;SDS011;12498;50.880;12.096;2022-10-30T00:36:31;19.98;;;7.70;;
24373;SDS011;12498;50.880;12.096;2022-10-30T00:38:57;22.73;;;8.65;;
24373;SDS011;12498;50.880;12.096;2022-10-30T00:41:23;20.60;;;7.95;;
24373;SDS011;12498;50.880;12.096;2022-10-30T00:43:49;20.80;;;8.13;;
24373;SDS011;12498;50.880;12.096;2022-10-30T00:46:35;20.30;;;8.05;;
24373;SDS011;12498;50.880;12.096;2022-10-30T00:49:10;18.73;;;7.45;;
24373;SDS011;12498;50.880;12.096;2022-10-30T00:51:41;21.38;;;8.00;;
24373;SDS011;12498;50.880;12.096;2022-10-30T00:54:11;21.50;;;7.90;;
24373;SDS011;12498;50.880;12.096;2022-10-30T00:56:39;21.05;;;7.63;;
24373;SDS011;12498;50.880;12.096;2022-10-30T00:59:06;17.08;;;7.82;;
24373;SDS011;12498;50.880;12.096;2022-10-30T01:01:35;24.60;;;8.00;;
24373;SDS011;12498;50.880;12.096;2022-10-30T01:04:03;25.02;;;7.85;;
24373;SDS011;12498;50.880;12.096;2022-10-30T01:06:34;20.92;;;7.95;;
24373;SDS011;12498;50.880;12.096;2022-10-30T01:09:03;18.05;;;8.05;;
24373;SDS011;12498;50.880;12.096;2022-10-30T01:11:29;15.13;;;7.05;;
24373;SDS011;12498;50.880;12.096;2022-10-30T01:14:04;18.80;;;7.38;;
24373;SDS011;12498;50.880;12.096;2022-10-30T01:27:38;21.77;;;7.60;;
24373;SDS011;12498;50.880;12.096;2022-10-30T01:30:23;22.38;;;7.32;;
24373;SDS011;12498;50.880;12.096;2022-10-30T01:38:35;24.40;;;10.10;;
24373;SDS011;12498;50.880;12.096;2022-10-30T01:41:08;20.95;;;9.05;;
24373;SDS011;12498;50.880;12.096;2022-10-30T01:43:34;20.05;;;7.28;;
24373;SDS011;12498;50.880;12.096;2022-10-30T01:46:46;24.17;;;9.20;;
24373;SDS011;12498;50.880;12.096;2022-10-30T01:54:37;23.38;;;8.75;;
24373;SDS011;12498;50.880;12.096;2022-10-30T02:00:32;26.95;;;7.95;;
24373;SDS011;12498;50.880;12.096;2022-10-30T02:02:59;20.50;;;8.85;;
24373;SDS011;12498;50.880;12.096;2022-10-30T02:05:27;24.77;;;7.85;;
24373;SDS011;12498;50.880;12.096;2022-10-30T02:08:06;24.48;;;7.95;;
24373;SDS011;12498;50.880;12.096;2022-10-30T02:10:32;17.83;;;7.90;;
24373;SDS011;12498;50.880;12.096;2022-10-30T02:12:59;18.10;;;7.32;;
24373;SDS011;12498;50.880;12.096;2022-10-30T02:15:25;22.15;;;7.35;;
24373;SDS011;12498;50.880;12.096;2022-10-30T02:17:51;24.45;;;7.22;;
24373;SDS011;12498;50.880;12.096;2022-10-30T02:20:18;20.33;;;6.25;;
24373;SDS011;12498;50.880;12.096;2022-10-30T02:22:45;20.13;;;7.07;;
24373;SDS011;12498;50.880;12.096;2022-10-30T02:25:11;23.02;;;6.82;;
24373;SDS011;12498;50.880;12.096;2022-10-30T02:27:37;17.55;;;6.75;;
24373;SDS011;12498;50.880;12.096;2022-10-30T02:30:03;16.27;;;6.32;;
24373;SDS011;12498;50.880;12.096;2022-10-30T02:32:29;17.83;;;6.28;;
24373;SDS011;12498;50.880;12.096;2022-10-30T02:34:55;20.88;;;6.35;;
24373;SDS011;12498;50.880;12.096;2022-10-30T02:37:21;19.77;;;6.22;;
24373;SDS011;12498;50.880;12.096;2022-10-30T02:39:48;19.77;;;6.68;;
24373;SDS011;12498;50.880;12.096;2022-10-30T02:42:14;19.73;;;7.07;;
24373;SDS011;12498;50.880;12.096;2022-10-30T02:44:40;19.52;;;6.28;;
24373;SDS011;12498;50.880;12.096;2022-10-30T02:47:05;19.30;;;6.43;;
24373;SDS011;12498;50.880;12.096;2022-10-30T02:49:31;19.63;;;7.32;;
24373;SDS011;12498;50.880;12.096;2022-10-30T02:51:56;21.70;;;6.90;;
24373;SDS011;12498;50.880;12.096;2022-10-30T02:54:22;17.98;;;6.60;;
24373;SDS011;12498;50.880;12.096;2022-10-30T02:56:47;25.15;;;5.90;;
24373;SDS011;12498;50.880;12.096;2022-10-30T02:59:13;23.55;;;6.93;;
24373;SDS011;12498;50.880;12.096;2022-10-30T03:01:38;23.83;;;6.53;;
24373;SDS011;12498;50.880;12.096;2022-10-30T03:04:04;19.73;;;6.63;;
24373;SDS011;12498;50.880;12.096;2022-10-30T03:06:30;16.80;;;6.13;;
24373;SDS011;12498;50.880;12.096;2022-10-30T03:08:55;17.00;;;6.13;;
24373;SDS011;12498;50.880;12.096;2022-10-30T03:11:21;19.95;;;7.00;;
24373;SDS011;12498;50.880;12.096;2022-10-30T03:13:47;15.48;;;5.93;;
24373;SDS011;12498;50.880;12.096;2022-10-30T03:18:43;16.95;;;6.35;;
24373;SDS011;12498;50.880;12.096;2022-10-30T03:21:10;23.48;;;9.90;;
24373;SDS011;12498;50.880;12.096;2022-10-30T03:23:37;21.17;;;9.30;;
24373;SDS011;12498;50.880;12.096;2022-10-30T03:26:03;21.90;;;7.20;;
24373;SDS011;12498;50.880;12.096;2022-10-30T03:28:29;22.02;;;6.60;;
24373;SDS011;12498;50.880;12.096;2022-10-30T03:31:05;17.05;;;6.50;;
24373;SDS011;12498;50.880;12.096;2022-10-30T03:33:33;27.25;;;6.97;;
24373;SDS011;12498;50.880;12.096;2022-10-30T03:35:59;15.90;;;5.72;;
24373;SDS011;12498;50.880;12.096;2022-10-30T03:38:25;21.92;;;6.25;;
24373;SDS011;12498;50.880;12.096;2022-10-30T03:40:51;19.15;;;6.00;;
24373;SDS011;12498;50.880;12.096;2022-10-30T03:43:17;19.05;;;6.57;;
24373;SDS011;12498;50.880;12.096;2022-10-30T03:45:46;18.92;;;5.78;;
24373;SDS011;12498;50.880;12.096;2022-10-30T03:48:13;16.92;;;6.03;;
24373;SDS011;12498;50.880;12.096;2022-10-30T03:50:39;19.52;;;6.55;;
24373;SDS011;12498;50.880;12.096;2022-10-30T03:53:04;17.88;;;6.10;;
24373;SDS011;12498;50.880;12.096;2022-10-30T03:55:30;20.23;;;6.53;;
24373;SDS011;12498;50.880;12.096;2022-10-30T03:57:56;23.13;;;6.40;;
24373;SDS011;12498;50.880;12.096;2022-10-30T04:00:21;16.42;;;6.28;;
24373;SDS011;12498;50.880;12.096;2022-10-30T04:02:47;23.52;;;6.30;;
24373;SDS011;12498;50.880;12.096;2022-10-30T04:05:15;17.13;;;6.43;;
24373;SDS011;12498;50.880;12.096;2022-10-30T04:07:42;19.77;;;6.50;;
24373;SDS011;12498;50.880;12.096;2022-10-30T04:10:07;18.08;;;6.45;;
24373;SDS011;12498;50.880;12.096;2022-10-30T04:12:34;22.02;;;6.25;;
24373;SDS011;12498;50.880;12.096;2022-10-30T04:15:00;20.35;;;6.85;;
24373;SDS011;12498;50.880;12.096;2022-10-30T04:17:25;16.27;;;6.15;;
24373;SDS011;12498;50.880;12.096;2022-10-30T04:19:51;24.15;;;6.10;;
24373;SDS011;12498;50.880;12.096;2022-10-30T04:22:17;19.73;;;5.93;;
24373;SDS011;12498;50.880;12.096;2022-10-30T04:24:42;15.10;;;5.93;;
24373;SDS011;12498;50.880;12.096;2022-10-30T04:27:08;20.75;;;6.40;;
24373;SDS011;12498;50.880;12.096;2022-10-30T04:29:34;24.48;;;6.40;;
24373;SDS011;12498;50.880;12.096;2022-10-30T04:32:01;24.73;;;6.60;;
24373;SDS011;12498;50.880;12.096;2022-10-30T04:34:27;21.00;;;6.65;;
24373;SDS011;12498;50.880;12.096;2022-10-30T04:36:53;21.20;;;6.45;;
24373;SDS011;12498;50.880;12.096;2022-10-30T04:39:19;19.02;;;6.63;;
24373;SDS011;12498;50.880;12.096;2022-10-30T04:41:45;21.30;;;7.32;;
24373;SDS011;12498;50.880;12.096;2022-10-30T04:44:10;19.35;;;6.15;;
24373;SDS011;12498;50.880;12.096;2022-10-30T04:46:36;19.27;;;6.75;;
24373;SDS011;12498;50.880;12.096;2022-10-30T04:49:02;17.63;;;6.40;;
24373;SDS011;12498;50.880;12.096;2022-10-30T04:51:27;20.27;;;6.50;;
24373;SDS011;12498;50.880;12.096;2022-10-30T04:53:56;20.45;;;6.72;;
24373;SDS011;12498;50.880;12.096;2022-10-30T04:56:23;21.60;;;7.20;;
24373;SDS011;12498;50.880;12.096;2022-10-30T04:58:49;19.38;;;7.13;;
24373;SDS011;12498;50.880;12.096;2022-10-30T05:01:14;21.73;;;6.53;;
24373;SDS011;12498;50.880;12.096;2022-10-30T05:03:40;22.45;;;6.88;;
24373;SDS011;12498;50.880;12.096;2022-10-30T05:06:06;21.02;;;6.85;;
24373;SDS011;12498;50.880;12.096;2022-10-30T05:08:38;20.30;;;6.50;;
24373;SDS011;12498;50.880;12.096;2022-10-30T05:11:04;16.83;;;6.20;;
24373;SDS011;12498;50.880;12.096;2022-10-30T05:13:30;20.35;;;6.30;;
24373;SDS011;12498;50.880;12.096;2022-10-30T05:15:56;18.95;;;5.50;;
24373;SDS011;12498;50.880;12.096;2022-10-30T05:18:21;17.73;;;6.35;;
24373;SDS011;12498;50.880;12.096;2022-10-30T05:20:47;21.20;;;5.95;;
24373;SDS011;12498;50.880;12.096;2022-10-30T05:23:12;16.27;;;5.65;;
24373;SDS011;12498;50.880;12.096;2022-10-30T05:25:38;19.08;;;6.35;;
24373;SDS011;12498;50.880;12.096;2022-10-30T05:28:04;26.80;;;8.20;;
24373;SDS011;12498;50.880;12.096;2022-10-30T05:30:32;25.25;;;8.00;;
24373;SDS011;12498;50.880;12.096;2022-10-30T05:33:02;31.30;;;9.65;;
24373;SDS011;12498;50.880;12.096;2022-10-30T05:35:30;23.45;;;7.63;;
24373;SDS011;12498;50.880;12.096;2022-10-30T05:37:57;20.33;;;7.68;;
24373;SDS011;12498;50.880;12.096;2022-10-30T05:40:23;24.58;;;7.93;;
24373;SDS011;12498;50.880;12.096;2022-10-30T05:42:48;26.25;;;7.38;;
24373;SDS011;12498;50.880;12.096;2022-10-30T05:45:14;19.35;;;6.90;;
24373;SDS011;12498;50.880;12.096;2022-10-30T05:47:41;19.02;;;6.75;;
24373;SDS011;12498;50.880;12.096;2022-10-30T05:50:06;15.13;;;6.20;;
24373;SDS011;12498;50.880;12.096;2022-10-30T05:52:33;20.25;;;6.68;;
24373;SDS011;12498;50.880;12.096;2022-10-30T05:54:58;27.40;;;8.80;;
24373;SDS011;12498;50.880;12.096;2022-10-30T05:57:26;26.85;;;7.18;;
24373;SDS011;12498;50.880;12.096;2022-10-30T05:59:53;21.58;;;6.85;;
24373;SDS011;12498;50.880;12.096;2022-10-30T06:02:18;26.38;;;6.72;;
24373;SDS011;12498;50.880;12.096;2022-10-30T06:04:44;22.27;;;5.97;;
24373;SDS011;12498;50.880;12.096;2022-10-30T06:07:10;31.88;;;7.57;;
24373;SDS011;12498;50.880;12.096;2022-10-30T06:09:35;25.30;;;7.63;;
24373;SDS011;12498;50.880;12.096;2022-10-30T06:12:01;21.60;;;6.88;;
24373;SDS011;12498;50.880;12.096;2022-10-30T06:14:27;27.92;;;8.27;;
24373;SDS011;12498;50.880;12.096;2022-10-30T06:16:52;22.13;;;7.85;;
24373;SDS011;12498;50.880;12.096;2022-10-30T06:19:19;30.58;;;8.10;;
24373;SDS011;12498;50.880;12.096;2022-10-30T06:21:45;24.15;;;8.32;;
24373;SDS011;12498;50.880;12.096;2022-10-30T06:24:11;25.50;;;8.52;;
24373;SDS011;12498;50.880;12.096;2022-10-30T06:26:37;22.58;;;7.68;;
24373;SDS011;12498;50.880;12.096;2022-10-30T06:29:03;24.67;;;7.05;;
24373;SDS011;12498;50.880;12.096;2022-10-30T06:31:28;26.42;;;6.78;;
24373;SDS011;12498;50.880;12.096;2022-10-30T06:33:54;27.92;;;7.45;;
24373;SDS011;12498;50.880;12.096;2022-10-30T06:36:19;28.92;;;7.50;;
24373;SDS011;12498;50.880;12.096;2022-10-30T06:38:45;29.60;;;7.57;;
24373;SDS011;12498;50.880;12.096;2022-10-30T06:41:11;26.10;;;6.78;;
24373;SDS011;12498;50.880;12.096;2022-10-30T06:43:36;30.98;;;7.18;;
24373;SDS011;12498;50.880;12.096;2022-10-30T06:46:02;23.50;;;8.15;;
24373;SDS011;12498;50.880;12.096;2022-10-30T06:48:27;37.03;;;10.30;;
24373;SDS011;12498;50.880;12.096;2022-10-30T06:50:54;33.63;;;9.75;;
24373;SDS011;12498;50.880;12.096;2022-10-30T06:53:20;32.35;;;9.07;;
24373;SDS011;12498;50.880;12.096;2022-10-30T06:55:53;35.28;;;10.52;;
24373;SDS011;12498;50.880;12.096;2022-10-30T06:58:24;28.75;;;8.60;;
24373;SDS011;12498;50.880;12.096;2022-10-30T07:00:50;37.28;;;8.98;;
24373;SDS011;12498;50.880;12.096;2022-10-30T07:03:16;36.05;;;10.30;;
24373;SDS011;12498;50.880;12.096;2022-10-30T07:05:42;30.08;;;8.38;;
24373;SDS011;12498;50.880;12.096;2022-10-30T07:08:07;27.30;;;8.25;;
24373;SDS011;12498;50.880;12.096;2022-10-30T07:10:33;26.90;;;8.30;;
24373;SDS011;12498;50.880;12.096;2022-10-30T07:12:59;37.47;;;8.20;;
24373;SDS011;12498;50.880;12.096;2022-10-30T07:15:25;25.13;;;7.57;;
24373;SDS011;12498;50.880;12.096;2022-10-30T07:17:51;22.45;;;7.65;;
24373;SDS011;12498;50.880;12.096;2022-10-30T07:20:26;28.33;;;7.88;;
24373;SDS011;12498;50.880;12.096;2022-10-30T07:22:52;35.70;;;10.50;;
24373;SDS011;12498;50.880;12.096;2022-10-30T07:25:18;39.88;;;9.18;;
24373;SDS011;12498;50.880;12.096;2022-10-30T07:27:45;29.35;;;7.50;;
24373;SDS011;12498;50.880;12.096;2022-10-30T07:30:12;20.92;;;6.90;;
24373;SDS011;12498;50.880;12.096;2022-10-30T07:32:40;25.58;;;7.55;;
24373;SDS011;12498;50.880;12.096;2022-10-30T07:35:06;27.65;;;7.72;;
24373;SDS011;12498;50.880;12.096;2022-10-30T07:37:33;40.40;;;10.85;;
24373;SDS011;12498;50.880;12.096;2022-10-30T07:39:59;26.15;;;8.43;;
24373;SDS011;12498;50.880;12.096;2022-10-30T07:42:24;25.42;;;8.15;;
24373;SDS011;12498;50.880;12.096;2022-10-30T07:44:50;27.83;;;8.02;;
24373;SDS011;12498;50.880;12.096;2022-10-30T07:47:16;31.98;;;7.97;;
24373;SDS011;12498;50.880;12.096;2022-10-30T07:49:41;37.75;;;12.43;;
24373;SDS011;12498;50.880;12.096;2022-10-30T07:52:07;29.58;;;9.40;;
24373;SDS011;12498;50.880;12.096;2022-10-30T07:54:32;50.25;;;14.13;;
24373;SDS011;12498;50.880;12.096;2022-10-30T07:56:58;39.83;;;10.77;;
24373;SDS011;12498;50.880;12.096;2022-10-30T07:59:24;33.17;;;11.30;;
24373;SDS011;12498;50.880;12.096;2022-10-30T08:01:50;34.20;;;10.95;;
24373;SDS011;12498;50.880;12.096;2022-10-30T08:04:16;56.25;;;16.88;;
24373;SDS011;12498;50.880;12.096;2022-10-30T08:06:41;52.95;;;17.27;;
24373;SDS011;12498;50.880;12.096;2022-10-30T08:09:07;51.65;;;16.48;;
24373;SDS011;12498;50.880;12.096;2022-10-30T08:11:33;42.80;;;15.07;;
24373;SDS011;12498;50.880;12.096;2022-10-30T08:13:58;31.15;;;9.95;;
24373;SDS011;12498;50.880;12.096;2022-10-30T08:16:24;33.17;;;10.95;;
24373;SDS011;12498;50.880;12.096;2022-10-30T08:18:50;35.28;;;11.88;;
24373;SDS011;12498;50.880;12.096;2022-10-30T08:21:16;37.33;;;12.77;;
24373;SDS011;12498;50.880;12.096;2022-10-30T08:23:41;37.60;;;11.48;;
24373;SDS011;12498;50.880;12.096;2022-10-30T08:26:07;27.02;;;8.95;;
24373;SDS011;12498;50.880;12.096;2022-10-30T08:28:33;21.38;;;8.48;;
24373;SDS011;12498;50.880;12.096;2022-10-30T08:30:59;23.65;;;8.73;;
24373;SDS011;12498;50.880;12.096;2022-10-30T08:33:25;21.90;;;7.43;;
24373;SDS011;12498;50.880;12.096;2022-10-30T08:35:52;27.65;;;5.97;;
24373;SDS011;12498;50.880;12.096;2022-10-30T08:38:20;18.55;;;6.32;;
24373;SDS011;12498;50.880;12.096;2022-10-30T08:40:46;20.55;;;7.25;;
24373;SDS011;12498;50.880;12.096;2022-10-30T08:43:12;21.88;;;7.47;;
24373;SDS011;12498;50.880;12.096;2022-10-30T08:45:41;34.88;;;8.98;;
24373;SDS011;12498;50.880;12.096;2022-10-30T08:48:08;26.48;;;9.95;;
24373;SDS011;12498;50.880;12.096;2022-10-30T08:50:35;24.55;;;8.77;;
24373;SDS011;12498;50.880;12.096;2022-10-30T08:53:02;21.40;;;7.38;;
24373;SDS011;12498;50.880;12.096;2022-10-30T08:55:29;20.13;;;7.10;;
24373;SDS011;12498;50.880;12.096;2022-10-30T08:57:56;27.95;;;7.32;;
24373;SDS011;12498;50.880;12.096;2022-10-30T09:00:22;19.08;;;6.20;;
24373;SDS011;12498;50.880;12.096;2022-10-30T09:02:47;19.92;;;5.90;;
24373;SDS011;12498;50.880;12.096;2022-10-30T09:05:13;16.33;;;6.35;;
24373;SDS011;12498;50.880;12.096;2022-10-30T09:07:39;22.65;;;6.28;;
24373;SDS011;12498;50.880;12.096;2022-10-30T09:10:05;18.55;;;6.63;;
24373;SDS011;12498;50.880;12.096;2022-10-30T09:12:31;21.20;;;6.80;;
24373;SDS011;12498;50.880;12.096;2022-10-30T09:14:56;22.23;;;6.72;;
24373;SDS011;12498;50.880;12.096;2022-10-30T09:17:22;18.02;;;6.70;;
24373;SDS011;12498;50.880;12.096;2022-10-30T09:19:48;19.10;;;6.57;;
24373;SDS011;12498;50.880;12.096;2022-10-30T09:22:14;19.23;;;6.47;;
24373;SDS011;12498;50.880;12.096;2022-10-30T09:24:39;24.92;;;8.40;;
24373;SDS011;12498;50.880;12.096;2022-10-30T09:27:05;23.58;;;8.40;;
24373;SDS011;12498;50.880;12.096;2022-10-30T09:29:31;21.88;;;8.20;;
24373;SDS011;12498;50.880;12.096;2022-10-30T09:32:00;27.00;;;8.40;;
24373;SDS011;12498;50.880;12.096;2022-10-30T09:34:32;25.00;;;7.28;;
24373;SDS011;12498;50.880;12.096;2022-10-30T09:36:58;20.00;;;5.75;;
24373;SDS011;12498;50.880;12.096;2022-10-30T09:39:24;18.52;;;6.57;;
24373;SDS011;12498;50.880;12.096;2022-10-30T09:52:41;24.38;;;5.85;;
24373;SDS011;12498;50.880;12.096;2022-10-30T09:58:16;22.52;;;6.43;;
24373;SDS011;12498;50.880;12.096;2022-10-30T10:01:06;20.75;;;6.47;;
24373;SDS011;12498;50.880;12.096;2022-10-30T10:06:12;21.85;;;5.68;;
24373;SDS011;12498;50.880;12.096;2022-10-30T10:08:45;17.45;;;5.57;;
24373;SDS011;12498;50.880;12.096;2022-10-30T10:11:18;22.55;;;6.38;;
24373;SDS011;12498;50.880;12.096;2022-10-30T10:16:26;22.00;;;5.88;;
24373;SDS011;12498;50.880;12.096;2022-10-30T10:19:08;21.77;;;4.95;;
24373;SDS011;12498;50.880;12.096;2022-10-30T10:24:37;25.63;;;5.25;;
24373;SDS011;12498;50.880;12.096;2022-10-30T10:30:04;16.88;;;5.40;;
24373;SDS011;12498;50.880;12.096;2022-10-30T10:43:38;28.70;;;11.18;;
24373;SDS011;12498;50.880;12.096;2022-10-30T10:49:36;17.15;;;5.35;;
24373;SDS011;12498;50.880;12.096;2022-10-30T10:52:22;18.33;;;5.55;;
24373;SDS011;12498;50.880;12.096;2022-10-30T10:54:54;18.92;;;4.85;;
24373;SDS011;12498;50.880;12.096;2022-10-30T10:57:41;16.88;;;5.10;;
24373;SDS011;12498;50.880;12.096;2022-10-30T11:00:18;21.95;;;5.15;;
24373;SDS011;12498;50.880;12.096;2022-10-30T11:02:50;18.77;;;5.15;;
24373;SDS011;12498;50.880;12.096;2022-10-30T11:05:35;18.63;;;5.95;;
24373;SDS011;12498;50.880;12.096;2022-10-30T11:10:56;20.15;;;5.20;;
24373;SDS011;12498;50.880;12.096;2022-10-30T11:13:36;21.60;;;5.03;;
24373;SDS011;12498;50.880;12.096;2022-10-30T11:16:18;17.45;;;4.57;;
24373;SDS011;12498;50.880;12.096;2022-10-30T11:18:46;16.35;;;5.03;;
24373;SDS011;12498;50.880;12.096;2022-10-30T11:21:16;17.00;;;4.93;;
24373;SDS011;12498;50.880;12.096;2022-10-30T11:23:46;14.48;;;4.97;;
24373;SDS011;12498;50.880;12.096;2022-10-30T11:36:46;16.05;;;5.60;;
24373;SDS011;12498;50.880;12.096;2022-10-30T11:39:23;21.52;;;6.68;;
24373;SDS011;12498;50.880;12.096;2022-10-30T11:44:19;19.83;;;5.38;;
24373;SDS011;12498;50.880;12.096;2022-10-30T11:46:56;19.40;;;5.30;;
24373;SDS011;12498;50.880;12.096;2022-10-30T11:49:40;15.45;;;5.03;;
24373;SDS011;12498;50.880;12.096;2022-10-30T11:52:14;15.20;;;5.00;;
24373;SDS011;12498;50.880;12.096;2022-10-30T11:54:44;16.90;;;5.20;;
24373;SDS011;12498;50.880;12.096;2022-10-30T11:59:58;17.38;;;4.32;;
24373;SDS011;12498;50.880;12.096;2022-10-30T12:02:25;20.02;;;5.03;;
24373;SDS011;12498;50.880;12.096;2022-10-30T12:04:55;16.55;;;5.60;;
24373;SDS011;12498;50.880;12.096;2022-10-30T12:07:34;17.67;;;5.75;;
24373;SDS011;12498;50.880;12.096;2022-10-30T12:09:59;22.48;;;6.18;;
24373;SDS011;12498;50.880;12.096;2022-10-30T12:12:28;17.90;;;4.45;;
24373;SDS011;12498;50.880;12.096;2022-10-30T12:17:59;26.15;;;6.72;;
24373;SDS011;12498;50.880;12.096;2022-10-30T12:20:27;18.65;;;5.55;;
24373;SDS011;12498;50.880;12.096;2022-10-30T12:22:53;19.58;;;5.30;;
24373;SDS011;12498;50.880;12.096;2022-10-30T12:27:48;23.00;;;5.05;;
24373;SDS011;12498;50.880;12.096;2022-10-30T12:30:19;17.83;;;4.65;;
24373;SDS011;12498;50.880;12.096;2022-10-30T12:32:58;14.93;;;4.28;;
24373;SDS011;12498;50.880;12.096;2022-10-30T12:35:50;15.93;;;4.07;;
24373;SDS011;12498;50.880;12.096;2022-10-30T12:41:19;16.70;;;4.30;;
24373;SDS011;12498;50.880;12.096;2022-10-30T12:43:51;14.63;;;3.97;;
24373;SDS011;12498;50.880;12.096;2022-10-30T12:46:31;14.32;;;4.20;;
24373;SDS011;12498;50.880;12.096;2022-10-30T12:49:07;15.20;;;4.03;;
24373;SDS011;12498;50.880;12.096;2022-10-30T12:51:45;19.90;;;4.85;;
24373;SDS011;12498;50.880;12.096;2022-10-30T12:57:12;22.23;;;4.53;;
24373;SDS011;12498;50.880;12.096;2022-10-30T13:05:33;17.73;;;4.20;;
24373;SDS011;12498;50.880;12.096;2022-10-30T13:11:15;13.63;;;4.30;;
24373;SDS011;12498;50.880;12.096;2022-10-30T13:13:47;15.70;;;4.18;;
24373;SDS011;12498;50.880;12.096;2022-10-30T13:16:18;16.70;;;3.83;;
24373;SDS011;12498;50.880;12.096;2022-10-30T13:18:54;17.05;;;3.90;;
24373;SDS011;12498;50.880;12.096;2022-10-30T13:21:33;18.33;;;4.32;;
24373;SDS011;12498;50.880;12.096;2022-10-30T13:24:14;11.90;;;4.20;;
24373;SDS011;12498;50.880;12.096;2022-10-30T13:29:45;21.52;;;4.07;;
24373;SDS011;12498;50.880;12.096;2022-10-30T13:54:00;17.10;;;4.40;;
24373;SDS011;12498;50.880;12.096;2022-10-30T13:56:27;19.88;;;3.78;;
24373;SDS011;12498;50.880;12.096;2022-10-30T13:59:01;19.75;;;4.15;;
24373;SDS011;12498;50.880;12.096;2022-10-30T14:04:29;10.27;;;3.88;;
24373;SDS011;12498;50.880;12.096;2022-10-30T14:10:21;15.38;;;4.28;;
24373;SDS011;12498;50.880;12.096;2022-10-30T14:13:15;25.67;;;4.65;;
24373;SDS011;12498;50.880;12.096;2022-10-30T14:15:51;18.90;;;4.43;;
24373;SDS011;12498;50.880;12.096;2022-10-30T14:18:25;17.48;;;4.15;;
24373;SDS011;12498;50.880;12.096;2022-10-30T14:20:52;14.80;;;4.00;;
24373;SDS011;12498;50.880;12.096;2022-10-30T14:23:21;17.90;;;4.53;;
24373;SDS011;12498;50.880;12.096;2022-10-30T14:28:31;23.08;;;5.57;;
24373;SDS011;12498;50.880;12.096;2022-10-30T14:33:33;15.43;;;4.75;;
24373;SDS011;12498;50.880;12.096;2022-10-30T14:36:23;22.80;;;4.63;;
24373;SDS011;12498;50.880;12.096;2022-10-30T14:44:42;18.25;;;5.10;;
24373;SDS011;12498;50.880;12.096;2022-10-30T14:58:31;16.20;;;5.95;;
24373;SDS011;12498;50.880;12.096;2022-10-30T15:09:22;23.58;;;5.20;;
24373;SDS011;12498;50.880;12.096;2022-10-30T15:12:18;22.65;;;5.30;;
24373;SDS011;12498;50.880;12.096;2022-10-30T15:14:48;17.27;;;5.22;;
24373;SDS011;12498;50.880;12.096;2022-10-30T15:17:38;17.90;;;5.80;;
24373;SDS011;12498;50.880;12.096;2022-10-30T15:20:17;20.50;;;5.35;;
24373;SDS011;12498;50.880;12.096;2022-10-30T15:22:48;19.33;;;6.70;;
24373;SDS011;12498;50.880;12.096;2022-10-30T15:25:18;14.50;;;5.07;;
24373;SDS011;12498;50.880;12.096;2022-10-30T15:27:46;12.18;;;4.75;;
24373;SDS011;12498;50.880;12.096;2022-10-30T15:30:24;16.55;;;4.80;;
24373;SDS011;12498;50.880;12.096;2022-10-30T15:32:51;15.32;;;4.07;;
24373;SDS011;12498;50.880;12.096;2022-10-30T15:40:35;14.55;;;4.30;;
24373;SDS011;12498;50.880;12.096;2022-10-30T15:43:03;13.95;;;4.15;;
24373;SDS011;12498;50.880;12.096;2022-10-30T15:45:32;14.48;;;4.30;;
24373;SDS011;12498;50.880;12.096;2022-10-30T15:48:23;23.40;;;4.68;;
24373;SDS011;12498;50.880;12.096;2022-10-30T15:51:00;16.38;;;3.85;;
24373;SDS011;12498;50.880;12.096;2022-10-30T15:53:32;15.60;;;4.78;;
24373;SDS011;12498;50.880;12.096;2022-10-30T15:58:52;15.90;;;4.35;;
24373;SDS011;12498;50.880;12.096;2022-10-30T16:01:23;17.42;;;4.20;;
24373;SDS011;12498;50.880;12.096;2022-10-30T16:04:02;15.55;;;4.50;;
24373;SDS011;12498;50.880;12.096;2022-10-30T16:06:30;22.45;;;6.75;;
24373;SDS011;12498;50.880;12.096;2022-10-30T16:08:56;20.73;;;6.03;;
24373;SDS011;12498;50.880;12.096;2022-10-30T16:11:22;15.68;;;5.15;;
24373;SDS011;12498;50.880;12.096;2022-10-30T16:13:50;8.40;;;4.15;;
24373;SDS011;12498;50.880;12.096;2022-10-30T16:16:19;19.77;;;8.40;;
24373;SDS011;12498;50.880;12.096;2022-10-30T16:18:48;27.48;;;14.82;;
24373;SDS011;12498;50.880;12.096;2022-10-30T16:21:16;21.42;;;7.40;;
24373;SDS011;12498;50.880;12.096;2022-10-30T16:23:49;15.40;;;7.30;;
24373;SDS011;12498;50.880;12.096;2022-10-30T16:26:23;20.45;;;9.65;;
24373;SDS011;12498;50.880;12.096;2022-10-30T16:28:48;18.35;;;7.22;;
24373;SDS011;12498;50.880;12.096;2022-10-30T16:31:14;26.70;;;7.97;;
24373;SDS011;12498;50.880;12.096;2022-10-30T16:33:44;14.00;;;5.50;;
24373;SDS011;12498;50.880;12.096;2022-10-30T16:36:10;15.23;;;4.82;;
24373;SDS011;12498;50.880;12.096;2022-10-30T16:38:41;17.00;;;7.10;;
24373;SDS011;12498;50.880;12.096;2022-10-30T16:41:09;34.97;;;16.33;;
24373;SDS011;12498;50.880;12.096;2022-10-30T16:43:37;39.70;;;18.92;;
24373;SDS011;12498;50.880;12.096;2022-10-30T16:48:33;18.38;;;5.50;;
24373;SDS011;12498;50.880;12.096;2022-10-30T16:51:00;17.42;;;5.40;;
24373;SDS011;12498;50.880;12.096;2022-10-30T16:53:30;16.60;;;5.63;;
24373;SDS011;12498;50.880;12.096;2022-10-30T16:55:56;13.98;;;5.57;;
24373;SDS011;12498;50.880;12.096;2022-10-30T16:58:25;19.40;;;4.28;;
24373;SDS011;12498;50.880;12.096;2022-10-30T17:00:53;15.52;;;4.55;;
24373;SDS011;12498;50.880;12.096;2022-10-30T17:03:26;15.80;;;4.95;;
24373;SDS011;12498;50.880;12.096;2022-10-30T17:05:56;20.60;;;8.20;;
24373;SDS011;12498;50.880;12.096;2022-10-30T17:08:42;19.40;;;7.15;;
24373;SDS011;12498;50.880;12.096;2022-10-30T17:11:18;18.08;;;7.05;;
24373;SDS011;12498;50.880;12.096;2022-10-30T17:16:23;30.52;;;14.10;;
24373;SDS011;12498;50.880;12.096;2022-10-30T17:18:51;26.35;;;9.02;;
24373;SDS011;12498;50.880;12.096;2022-10-30T17:21:19;24.27;;;8.95;;
24373;SDS011;12498;50.880;12.096;2022-10-30T17:26:53;20.83;;;7.45;;
24373;SDS011;12498;50.880;12.096;2022-10-30T17:29:29;17.75;;;7.47;;
24373;SDS011;12498;50.880;12.096;2022-10-30T17:32:13;17.80;;;6.03;;
24373;SDS011;12498;50.880;12.096;2022-10-30T17:34:46;24.50;;;6.88;;